Time;durP1;ratioP1;P1;durP2;ratioP2;P2;SDS_P1;SDS_P2;PMS_P1;PMS_P2;Temp;Humidity;BMP_temperature;BMP_pressure;BME280_temperature;BME280_humidity;BME280_pressure;Samples;Min_cycle;Max_cycle;Signal;HPM_P1;HPM_P2
2022/05/16 00:00:19;;;;;;;2.60;1.52;;;;;;;7.84;93.57;101994.97;5034231;28;20175;-48
2022/05/16 00:02:44;;;;;;;3.45;1.67;;;;;;;7.70;93.57;101993.34;5034182;28;20654;-51
2022/05/16 00:05:10;;;;;;;4.53;1.58;;;;;;;7.73;93.95;101988.84;5032784;28;20164;-49
2022/05/16 00:07:36;;;;;;;3.35;1.50;;;;;;;7.70;94.36;101994.22;5033613;28;20184;-48
2022/05/16 00:10:03;;;;;;;2.55;1.48;;;;;;;7.71;94.57;101998.66;5034504;28;20590;-49
2022/05/16 00:12:28;;;;;;;1.67;1.17;;;;;;;7.77;94.74;101993.28;5033404;28;20192;-45
2022/05/16 00:14:53;;;;;;;1.90;1.35;;;;;;;7.90;94.75;101990.53;5033731;28;20864;-48
2022/05/16 00:17:19;;;;;;;3.95;1.50;;;;;;;7.97;93.90;101998.44;5033902;28;20230;-48
2022/05/16 00:19:44;;;;;;;2.53;1.48;;;;;;;7.76;93.17;101985.28;5033564;28;20171;-48
2022/05/16 00:22:11;;;;;;;2.55;1.60;;;;;;;7.79;94.14;101990.59;5033871;28;20196;-48
2022/05/16 00:24:39;;;;;;;2.10;1.30;;;;;;;7.73;94.13;101994.19;5034404;28;20160;-48
2022/05/16 00:27:05;;;;;;;2.58;1.38;;;;;;;7.69;93.86;101983.56;5034086;28;20647;-46
2022/05/16 00:29:30;;;;;;;3.78;1.77;;;;;;;7.67;94.66;101996.03;5034391;28;20251;-49
2022/05/16 00:31:56;;;;;;;2.03;1.23;;;;;;;7.64;94.57;101994.28;5033746;28;20697;-50
2022/05/16 00:34:23;;;;;;;2.45;1.20;;;;;;;7.59;94.52;101998.75;5033980;28;20283;-47
2022/05/16 00:36:48;;;;;;;1.63;1.20;;;;;;;7.61;94.50;101989.84;5033967;28;20168;-49
2022/05/16 00:39:15;;;;;;;3.30;1.38;;;;;;;7.54;94.67;101992.56;5033852;28;20245;-49
2022/05/16 00:41:42;;;;;;;3.72;1.50;;;;;;;7.48;95.27;102006.84;5033957;28;20192;-49
2022/05/16 00:44:08;;;;;;;3.80;1.30;;;;;;;7.51;95.42;102001.47;5033473;28;20274;-47
2022/05/16 00:46:33;;;;;;;4.60;1.48;;;;;;;7.43;95.62;102000.63;5033878;28;20216;-47
2022/05/16 00:49:02;;;;;;;3.08;1.38;;;;;;;7.39;96.04;102006.88;5033699;28;20606;-47
2022/05/16 00:51:32;;;;;;;2.35;1.40;;;;;;;7.58;96.48;102004.97;5033531;28;20199;-48
2022/05/16 00:54:05;;;;;;;3.00;1.50;;;;;;;7.67;96.34;102009.34;5033647;28;20211;-48
2022/05/16 00:56:31;;;;;;;2.92;1.45;;;;;;;7.50;95.35;102018.38;5033418;28;20538;-48
2022/05/16 00:58:57;;;;;;;2.55;1.60;;;;;;;7.38;95.44;102013.97;5032174;28;20183;-50
2022/05/16 01:06:56;;;;;;;1.70;1.25;;;;;;;7.62;94.97;101991.59;5032277;28;20641;-48
2022/05/16 01:09:22;;;;;;;2.95;1.77;;;;;;;7.38;94.32;101990.00;5033074;28;20156;-51
2022/05/16 01:11:47;;;;;;;2.08;1.52;;;;;;;7.44;95.30;101994.41;5033191;28;20207;-51
2022/05/16 01:14:41;;;;;;;2.63;1.40;;;;;;;7.43;95.06;101988.19;5032731;28;20211;-49
2022/05/16 01:17:07;;;;;;;1.65;1.38;;;;;;;7.40;95.52;101984.66;5033344;28;20726;-51
2022/05/16 01:19:33;;;;;;;2.60;1.60;;;;;;;7.20;95.61;101992.78;5033082;28;20251;-48
2022/05/16 01:22:05;;;;;;;2.53;1.40;;;;;;;7.10;95.70;101985.72;5032697;28;20191;-48
2022/05/16 01:24:30;;;;;;;3.58;1.67;;;;;;;7.17;96.60;101977.69;5020900;28;20177;-48
2022/05/16 01:26:57;;;;;;;2.28;1.83;;;;;;;7.12;96.96;101975.94;5011367;28;20177;-47
2022/05/16 01:29:23;;;;;;;4.78;1.80;;;;;;;7.12;96.89;101963.50;5006733;28;20200;-49
2022/05/16 01:31:48;;;;;;;1.90;1.73;;;;;;;7.10;96.96;101972.41;4993291;28;20554;-54
2022/05/16 01:34:13;;;;;;;4.78;1.55;;;;;;;7.04;97.58;101976.00;4993157;28;20296;-50
2022/05/16 01:36:39;;;;;;;1.77;1.48;;;;;;;7.10;97.85;101977.72;4993248;28;20591;-49
2022/05/16 01:39:05;;;;;;;2.05;1.70;;;;;;;7.05;97.91;101974.22;4990498;28;20251;-49
2022/05/16 01:41:30;;;;;;;2.97;1.63;;;;;;;7.09;98.11;101970.63;4993132;28;20240;-50
2022/05/16 01:44:00;;;;;;;3.08;1.60;;;;;;;7.16;98.18;101972.38;4992481;28;20228;-47
2022/05/16 01:46:33;;;;;;;2.25;1.45;;;;;;;7.18;97.73;101978.56;4991572;28;20192;-48
2022/05/16 01:48:58;;;;;;;3.35;2.00;;;;;;;7.14;97.59;101980.34;4993129;28;20177;-48
2022/05/16 01:51:23;;;;;;;2.40;2.05;;;;;;;7.17;97.38;101974.13;4992988;28;20677;-47
2022/05/16 01:53:49;;;;;;;1.40;1.30;;;;;;;7.28;97.48;101968.72;4992385;28;20205;-54
2022/05/16 01:56:16;;;;;;;2.33;1.77;;;;;;;7.17;96.54;101964.38;4992816;28;20284;-46
2022/05/16 01:58:42;;;;;;;2.40;1.80;;;;;;;7.17;96.89;101961.72;4993194;28;20203;-45
2022/05/16 02:01:08;;;;;;;3.78;1.63;;;;;;;7.34;96.49;101963.38;4992886;28;20205;-44
2022/05/16 02:03:38;;;;;;;3.22;1.88;;;;;;;7.24;96.17;101962.56;4992315;28;20185;-47
2022/05/16 02:06:03;;;;;;;1.98;1.88;;;;;;;7.27;95.91;101958.97;4992715;28;20178;-46
2022/05/16 02:08:29;;;;;;;2.05;1.85;;;;;;;7.07;96.26;101959.97;4992340;28;20243;-45
2022/05/16 02:10:54;;;;;;;3.67;1.83;;;;;;;6.75;96.66;101957.47;4992296;28;20291;-46
2022/05/16 02:13:19;;;;;;;3.00;1.70;;;;;;;6.90;98.23;101953.84;4992125;28;20206;-44
2022/05/16 02:15:45;;;;;;;3.65;1.88;;;;;;;6.93;98.27;101945.81;4992326;28;20173;-44
2022/05/16 02:18:11;;;;;;;1.95;1.73;;;;;;;6.92;98.68;101944.06;4992472;28;20169;-44
2022/05/16 02:20:37;;;;;;;1.83;1.67;;;;;;;6.98;98.63;101952.91;5005109;28;20200;-46
2022/05/16 02:25:53;;;;;;;2.88;2.13;;;;;;;6.88;98.43;101950.31;5011913;28;20168;-49
2022/05/16 02:28:19;;;;;;;2.33;1.85;;;;;;;6.90;98.58;101927.22;5010687;28;20177;-47
2022/05/16 02:30:46;;;;;;;3.75;1.88;;;;;;;6.97;98.52;101929.81;5011991;28;20204;-48
2022/05/16 02:33:14;;;;;;;4.88;2.00;;;;;;;7.03;98.33;101925.38;5011310;28;20185;-46
2022/05/16 02:35:40;;;;;;;3.75;2.03;;;;;;;6.90;98.73;101921.88;5011838;28;20713;-45
2022/05/16 02:38:07;;;;;;;2.20;2.00;;;;;;;6.73;98.82;101921.97;5011885;28;20188;-44
2022/05/16 02:40:34;;;;;;;2.03;1.85;;;;;;;6.75;98.98;101936.16;5011593;28;20204;-44
2022/05/16 02:42:59;;;;;;;2.38;2.00;;;;;;;6.83;99.39;101921.03;5011733;28;20559;-48
2022/05/16 02:45:28;;;;;;;2.03;1.80;;;;;;;6.89;99.77;101914.81;4993811;28;20184;-44
2022/05/16 02:47:54;;;;;;;2.20;1.90;;;;;;;7.00;99.84;101913.81;5011881;28;20212;-45
2022/05/16 02:50:23;;;;;;;3.85;1.73;;;;;;;7.03;99.64;101909.38;5011221;28;20694;-47
2022/05/16 02:52:53;;;;;;;3.28;1.85;;;;;;;6.96;98.90;101920.06;5011232;28;20180;-45
2022/05/16 02:55:19;;;;;;;4.00;1.65;;;;;;;7.00;99.29;101921.81;5010888;28;20210;-44
2022/05/16 02:57:45;;;;;;;4.40;1.85;;;;;;;6.87;99.05;101914.78;5011166;28;20546;-46
2022/05/16 03:00:12;;;;;;;3.72;2.08;;;;;;;6.88;99.51;101918.34;5010747;28;20177;-45
2022/05/16 03:02:39;;;;;;;2.90;2.08;;;;;;;7.01;99.69;101912.91;5011023;28;20513;-47
2022/05/16 03:05:06;;;;;;;3.03;2.30;;;;;;;7.05;99.63;101910.25;5010748;28;20604;-45
2022/05/16 03:07:33;;;;;;;3.55;1.98;;;;;;;6.99;99.65;101917.38;5011031;28;20188;-46
2022/05/16 03:09:59;;;;;;;2.40;2.08;;;;;;;7.04;100.00;101919.13;5009456;28;20181;-47
2022/05/16 03:12:24;;;;;;;2.67;2.40;;;;;;;7.17;100.00;101916.41;5011049;28;20216;-47
2022/05/16 03:14:50;;;;;;;3.22;2.28;;;;;;;7.28;100.00;101926.06;5010611;28;20668;-47
2022/05/16 03:17:15;;;;;;;2.70;1.85;;;;;;;7.38;100.00;101919.78;5010949;28;20181;-44
2022/05/16 03:19:42;;;;;;;3.08;2.50;;;;;;;7.39;99.75;101921.53;5010998;28;20231;-47
2022/05/16 03:22:08;;;;;;;5.30;2.55;;;;;;;7.24;99.50;101930.56;5011011;28;20208;-45
2022/05/16 03:24:33;;;;;;;3.88;2.05;;;;;;;7.21;99.96;101920.81;5008551;28;20196;-46
2022/05/16 03:27:00;;;;;;;4.05;2.55;;;;;;;7.33;100.00;101917.16;4998749;28;20189;-49
2022/05/16 03:29:26;;;;;;;3.88;2.00;;;;;;;7.39;100.00;101922.47;4990725;28;20178;-45
2022/05/16 03:31:51;;;;;;;4.03;2.17;;;;;;;7.49;100.00;101914.38;4991263;28;20280;-48
2022/05/16 03:34:17;;;;;;;4.65;2.20;;;;;;;7.54;100.00;101924.13;4990774;28;20205;-44
2022/05/16 03:36:42;;;;;;;2.97;2.17;;;;;;;7.54;100.00;101913.47;4995073;28;20486;-43
2022/05/16 03:41:52;;;;;;;4.13;2.40;;;;;;;7.53;100.00;101921.47;5011962;28;20196;-45
2022/05/16 03:44:19;;;;;;;3.85;2.30;;;;;;;7.53;100.00;101914.34;5010192;28;20183;-46
2022/05/16 03:46:44;;;;;;;3.58;2.03;;;;;;;7.64;100.00;101917.78;4992480;28;20176;-46
2022/05/16 03:49:10;;;;;;;2.45;2.10;;;;;;;7.75;100.00;101919.50;5010743;28;20552;-48
2022/05/16 03:51:36;;;;;;;3.70;2.15;;;;;;;7.71;99.62;101915.09;5010558;28;20770;-44
2022/05/16 03:54:02;;;;;;;3.95;2.40;;;;;;;7.81;99.94;101922.13;5010674;28;20205;-44
2022/05/16 03:56:28;;;;;;;4.30;2.42;;;;;;;7.79;99.86;101922.13;5011403;28;20160;-46
2022/05/16 03:58:55;;;;;;;6.38;2.50;;;;;;;7.86;100.00;101911.41;5010474;28;20165;-45
2022/05/16 04:01:21;;;;;;;3.90;2.20;;;;;;;7.92;100.00;101901.53;5010731;28;20192;-47
2022/05/16 04:03:48;;;;;;;5.43;2.53;;;;;;;7.92;100.00;101906.88;5010653;28;20212;-46
2022/05/16 04:06:17;;;;;;;4.78;3.03;;;;;;;8.03;100.00;101902.31;5010631;28;20176;-45
2022/05/16 04:08:43;;;;;;;3.78;2.45;;;;;;;8.16;100.00;101911.06;5010184;28;20269;-46
2022/05/16 04:11:10;;;;;;;4.68;2.70;;;;;;;8.22;100.00;101913.69;5009726;28;20692;-48
2022/05/16 04:13:36;;;;;;;4.93;2.58;;;;;;;8.23;100.00;101922.56;4992260;28;20211;-45
2022/05/16 04:16:03;;;;;;;3.72;2.50;;;;;;;8.32;100.00;101918.91;5009619;28;20177;-47
2022/05/16 04:18:28;;;;;;;6.68;2.53;;;;;;;8.46;100.00;101911.66;4992700;28;20176;-46
2022/05/16 04:20:54;;;;;;;4.35;2.72;;;;;;;8.55;100.00;101916.91;5009211;28;20718;-50
2022/05/16 04:23:19;;;;;;;6.72;2.80;;;;;;;8.59;100.00;101921.31;4996513;28;20196;-46
2022/05/16 04:25:45;;;;;;;3.75;2.50;;;;;;;8.66;100.00;101906.97;5009262;28;20176;-47
2022/05/16 04:28:11;;;;;;;3.38;2.58;;;;;;;8.79;100.00;101918.38;5009996;28;20208;-44
2022/05/16 04:30:38;;;;;;;8.57;3.53;;;;;;;8.86;100.00;101913.81;5008840;28;20189;-44
2022/05/16 04:33:04;;;;;;;3.47;2.88;;;;;;;8.92;100.00;101918.19;5010031;28;20287;-43
2022/05/16 04:35:29;;;;;;;4.60;2.80;;;;;;;8.97;100.00;101919.91;5009820;28;20213;-45
2022/05/16 04:37:55;;;;;;;5.93;2.97;;;;;;;9.01;100.00;101929.66;5010162;28;20165;-45
2022/05/16 04:40:20;;;;;;;10.00;3.47;;;;;;;9.07;100.00;101913.53;5010124;28;20157;-50
2022/05/16 04:42:47;;;;;;;3.88;2.80;;;;;;;9.13;100.00;101911.66;5013338;28;20165;-49
2022/05/16 04:45:17;;;;;;;5.88;3.20;;;;;;;9.15;100.00;101900.03;5013697;28;20176;-46
2022/05/16 04:47:44;;;;;;;9.90;3.63;;;;;;;9.19;100.00;101914.25;5013269;28;20181;-50
2022/05/16 04:50:12;;;;;;;7.82;3.47;;;;;;;9.23;100.00;101906.16;5013604;28;20227;-45
2022/05/16 04:52:38;;;;;;;9.23;4.10;;;;;;;9.26;100.00;101908.75;5013263;28;20169;-46
2022/05/16 04:55:04;;;;;;;6.88;3.65;;;;;;;9.33;100.00;101898.84;5013406;28;20243;-46
2022/05/16 04:57:30;;;;;;;6.38;3.78;;;;;;;9.39;100.00;101909.47;5013211;28;20187;-46
2022/05/16 04:59:55;;;;;;;10.00;4.28;;;;;;;9.46;100.00;101902.22;5011874;28;20177;-45
2022/05/16 05:02:20;;;;;;;6.15;3.47;;;;;;;9.52;100.00;101895.91;5013183;28;20695;-45
2022/05/16 05:04:46;;;;;;;8.13;3.67;;;;;;;9.58;100.00;101896.69;5012902;28;20177;-44
2022/05/16 05:07:12;;;;;;;10.65;3.42;;;;;;;9.64;100.00;101906.38;5011929;28;20703;-46
2022/05/16 05:15:23;;;;;;;7.63;3.33;;;;;;;9.73;100.00;101892.84;5009701;28;20224;-49
2022/05/16 05:17:49;;;;;;;10.20;4.50;;;;;;;9.87;100.00;101897.97;5012728;28;20184;-44
2022/05/16 05:20:15;;;;;;;6.85;4.10;;;;;;;10.02;100.00;101891.44;5013038;28;20184;-43
2022/05/16 05:22:45;;;;;;;8.18;3.92;;;;;;;10.25;99.99;101886.50;5012624;28;20554;-45
2022/05/16 05:25:15;;;;;;;7.90;3.90;;;;;;;10.28;99.16;101891.81;5011529;28;20165;-45
2022/05/16 05:27:42;;;;;;;7.82;4.30;;;;;;;10.55;98.33;101891.31;5012604;28;20727;-46
2022/05/16 05:30:11;;;;;;;6.97;3.72;;;;;;;10.72;97.25;101878.44;5012544;28;20253;-43
2022/05/16 05:32:37;;;;;;;10.05;4.10;;;;;;;10.92;95.92;101883.34;5012690;28;20200;-45
2022/05/16 05:35:04;;;;;;;8.85;4.50;;;;;;;11.14;95.03;101878.34;5012198;28;20691;-49
2022/05/16 05:37:30;;;;;;;6.10;3.85;;;;;;;11.24;93.78;101876.31;5012560;28;20184;-47
2022/05/16 05:39:58;;;;;;;10.90;3.97;;;;;;;11.55;93.05;101871.97;5012505;28;20558;-48
2022/05/16 05:42:25;;;;;;;6.57;3.85;;;;;;;11.83;91.85;101879.31;5011882;28;20211;-48
2022/05/16 05:44:50;;;;;;;7.78;3.80;;;;;;;12.28;90.80;101875.44;5011760;28;20189;-46
2022/05/16 05:47:16;;;;;;;10.73;3.63;;;;;;;12.52;87.99;101880.09;5012337;28;20226;-45
2022/05/16 05:49:42;;;;;;;7.68;2.75;;;;;;;12.72;86.01;101868.72;5011966;28;20181;-48
2022/05/16 05:52:08;;;;;;;6.85;2.90;;;;;;;12.98;84.86;101875.97;5011197;28;20299;-47
2022/05/16 05:54:33;;;;;;;5.97;2.70;;;;;;;13.32;82.89;101874.06;5011374;28;20303;-48
2022/05/16 05:56:58;;;;;;;8.88;2.70;;;;;;;13.60;80.94;101869.53;5011845;28;20204;-46
2022/05/16 05:59:24;;;;;;;5.93;2.00;;;;;;;13.89;79.08;101864.94;5011628;28;20168;-48
2022/05/16 06:01:49;;;;;;;5.00;2.28;;;;;;;13.98;78.64;101864.59;5010364;28;20227;-46
2022/05/16 06:04:15;;;;;;;5.75;2.25;;;;;;;14.21;76.42;101870.94;5011161;28;20184;-46
2022/05/16 06:06:42;;;;;;;8.07;2.58;;;;;;;14.33;74.50;101865.13;5011496;28;20189;-46
2022/05/16 06:09:08;;;;;;;6.80;2.08;;;;;;;14.03;74.80;101880.59;5011563;28;20189;-45
2022/05/16 06:11:33;;;;;;;4.30;2.13;;;;;;;13.87;74.44;101876.69;5011491;28;20710;-47
2022/05/16 06:13:59;;;;;;;6.05;2.50;;;;;;;13.77;75.22;101887.81;5011225;28;20201;-48
2022/05/16 06:16:24;;;;;;;5.50;2.30;;;;;;;13.88;75.68;101882.00;5010354;28;20188;-45
2022/05/16 06:18:49;;;;;;;7.75;2.10;;;;;;;13.93;75.26;101877.34;5011726;28;20190;-44
2022/05/16 06:21:15;;;;;;;3.25;2.10;;;;;;;14.09;74.83;101879.50;5011685;28;20854;-43
2022/05/16 06:23:41;;;;;;;7.40;2.35;;;;;;;14.27;74.17;101880.66;5011233;28;20679;-43
2022/05/16 06:26:06;;;;;;;5.43;2.25;;;;;;;14.71;74.26;101884.38;5011678;28;20193;-45
2022/05/16 06:28:37;;;;;;;3.75;1.90;;;;;;;14.84;71.99;101882.97;5011475;28;20183;-42
2022/05/16 06:31:04;;;;;;;4.20;1.67;;;;;;;15.10;71.43;101872.09;5011537;28;20575;-43
2022/05/16 06:33:29;;;;;;;4.85;2.15;;;;;;;15.36;71.77;101876.41;5011495;28;20180;-44
2022/05/16 06:35:56;;;;;;;5.60;1.77;;;;;;;15.10;68.54;101880.19;5009976;28;20691;-46
2022/05/16 06:38:25;;;;;;;4.45;2.50;;;;;;;15.45;68.85;101886.81;5010939;28;20184;-45
2022/05/16 06:40:51;;;;;;;3.80;2.13;;;;;;;15.70;67.99;101883.06;5010673;28;20212;-42
2022/05/16 06:43:19;;;;;;;4.00;1.50;;;;;;;15.73;65.20;101874.91;5010495;28;20228;-43
2022/05/16 06:45:45;;;;;;;5.18;1.88;;;;;;;15.61;64.64;101878.94;5010975;28;20192;-48
2022/05/16 06:48:12;;;;;;;3.45;1.70;;;;;;;15.63;64.49;101880.66;5010749;28;20223;-44
2022/05/16 06:50:40;;;;;;;6.45;2.13;;;;;;;15.15;65.01;101873.66;5009832;28;20208;-45
2022/05/16 06:53:11;;;;;;;5.45;2.00;;;;;;;15.08;64.94;101869.44;5009830;28;20187;-44
2022/05/16 06:55:36;;;;;;;3.88;2.00;;;;;;;15.08;65.64;101866.72;5010143;28;20299;-46
2022/05/16 06:58:02;;;;;;;4.38;1.67;;;;;;;14.81;66.23;101880.41;5008836;28;20318;-45
2022/05/16 07:00:30;;;;;;;3.13;1.58;;;;;;;15.30;66.33;101871.25;5029195;28;20811;-46
2022/05/16 07:03:02;;;;;;;6.45;1.70;;;;;;;15.17;65.60;101871.75;4995950;28;20221;-45
2022/05/16 07:05:29;;;;;;;4.78;1.73;;;;;;;15.08;66.39;101873.97;5029272;28;20585;-44
2022/05/16 07:07:57;;;;;;;3.03;1.70;;;;;;;15.31;67.62;101867.63;5030332;28;20219;-44
2022/05/16 07:10:24;;;;;;;3.60;1.77;;;;;;;15.12;67.45;101868.38;5030586;28;20176;-45
2022/05/16 07:12:49;;;;;;;4.15;2.00;;;;;;;15.39;67.07;101868.16;5030627;28;20210;-42
2022/05/16 07:15:15;;;;;;;5.32;1.70;;;;;;;15.32;66.77;101870.25;5030331;28;20243;-43
2022/05/16 07:17:40;;;;;;;5.40;2.10;;;;;;;15.22;66.53;101863.50;5030490;28;20161;-47
2022/05/16 07:20:06;;;;;;;4.10;1.80;;;;;;;15.30;66.43;101871.25;5030421;28;20183;-43
2022/05/16 07:22:32;;;;;;;6.63;2.15;;;;;;;15.17;66.57;101865.47;5030532;28;20199;-43
2022/05/16 07:24:59;;;;;;;5.75;1.73;;;;;;;15.32;66.38;101870.25;5030184;28;20168;-43
2022/05/16 07:30:10;;;;;;;4.68;2.05;;;;;;;15.48;65.54;101878.63;5030236;28;20257;-44
2022/05/16 07:32:42;;;;;;;5.43;1.70;;;;;;;15.76;64.74;101877.44;5030048;28;20198;-43
2022/05/16 07:35:11;;;;;;;4.80;1.90;;;;;;;15.96;65.06;101873.88;5030455;28;20208;-42
2022/05/16 07:37:37;;;;;;;3.78;1.55;;;;;;;16.02;64.58;101879.00;5030297;28;20180;-49
2022/05/16 07:40:07;;;;;;;4.07;1.70;;;;;;;15.97;65.89;101881.94;5030333;28;20592;-46
2022/05/16 07:42:33;;;;;;;5.28;1.95;;;;;;;16.05;64.33;101898.69;5030841;28;20231;-45
2022/05/16 07:45:00;;;;;;;6.22;1.75;;;;;;;16.21;64.40;101873.69;5030041;28;20199;-44
2022/05/16 07:47:26;;;;;;;6.32;1.90;;;;;;;16.17;63.98;101881.03;5030363;28;20187;-47
2022/05/16 07:49:51;;;;;;;6.10;1.90;;;;;;;16.28;63.11;101870.59;5030463;28;20180;-48
2022/05/16 07:52:17;;;;;;;7.93;1.98;;;;;;;16.36;62.53;101891.03;5029828;28;20192;-48
2022/05/16 07:54:42;;;;;;;3.83;1.58;;;;;;;16.15;63.88;101872.13;5030144;28;20192;-45
2022/05/16 07:57:08;;;;;;;7.43;2.13;;;;;;;16.71;62.73;101869.59;5030044;28;20219;-45
2022/05/16 07:59:33;;;;;;;5.40;1.88;;;;;;;17.32;62.26;101866.63;5030089;28;20226;-42
2022/05/16 08:01:59;;;;;;;7.78;2.10;;;;;;;16.96;59.39;101863.91;5030137;28;20199;-48
2022/05/16 08:04:24;;;;;;;4.03;1.40;;;;;;;16.91;60.47;101869.53;5029605;28;20176;-45
2022/05/16 08:06:49;;;;;;;4.15;1.73;;;;;;;17.12;60.82;101872.13;5029977;28;20375;-42
2022/05/16 08:12:01;;;;;;;3.88;1.98;;;;;;;17.66;59.37;101873.91;4999142;28;20215;-45
2022/05/16 08:14:26;;;;;;;2.97;1.50;;;;;;;17.93;59.02;101868.06;5030147;28;20198;-46
2022/05/16 08:16:52;;;;;;;3.65;1.90;;;;;;;18.12;56.67;101862.53;5033757;28;20322;-41
2022/05/16 08:19:17;;;;;;;4.55;1.60;;;;;;;18.36;56.49;101878.44;5032352;28;20175;-44
2022/05/16 08:21:43;;;;;;;4.70;1.70;;;;;;;18.38;56.28;101861.13;5013644;28;20625;-46
2022/05/16 08:24:11;;;;;;;2.30;1.42;;;;;;;18.26;55.67;101859.97;5013777;28;20205;-50
2022/05/16 08:26:37;;;;;;;2.90;1.48;;;;;;;18.07;56.05;101859.19;5014055;28;20244;-44
2022/05/16 08:29:03;;;;;;;4.20;1.38;;;;;;;18.05;56.41;101848.41;5013356;28;20188;-47
2022/05/16 08:31:29;;;;;;;3.85;1.20;;;;;;;18.58;55.82;101840.16;5013762;28;20711;-47
2022/05/16 08:33:56;;;;;;;4.00;1.48;;;;;;;18.70;57.21;101856.63;5012938;28;20208;-46
2022/05/16 08:41:54;;;;;;;4.18;1.85;;;;;;;17.95;56.95;101852.59;5013215;28;20204;-46
2022/05/16 08:44:21;;;;;;;5.97;1.80;;;;;;;18.32;56.60;101853.31;5012742;28;20227;-46
2022/05/16 08:47:00;;;;;;;7.47;2.13;;;;;;;18.54;56.44;101842.16;5013071;28;20183;-47
2022/05/16 08:49:36;;;;;;;5.70;2.20;;;;;;;18.13;57.98;101837.16;5013304;28;20271;-47
2022/05/16 08:52:36;;;;;;;4.15;1.60;;;;;;;18.27;57.77;101829.13;5013085;28;20689;-46
2022/05/16 08:55:15;;;;;;;4.47;1.60;;;;;;;18.75;57.77;101829.22;5008126;28;20216;-48
2022/05/16 08:57:47;;;;;;;4.93;1.60;;;;;;;18.19;59.38;101833.22;5011626;28;20188;-47
2022/05/16 09:00:25;;;;;;;6.13;1.80;;;;;;;18.26;58.18;101831.97;5012502;28;20187;-46
2022/05/16 09:02:52;;;;;;;3.33;1.90;;;;;;;18.72;58.45;101811.28;5013018;28;20658;-46
2022/05/16 09:05:31;;;;;;;3.75;2.00;;;;;;;18.15;60.02;101826.22;5012290;28;20165;-49
2022/05/16 09:07:59;;;;;;;11.27;2.30;;;;;;;18.37;57.75;101825.94;5012753;28;20274;-46
2022/05/16 09:10:31;;;;;;;6.50;1.88;;;;;;;17.89;58.49;101817.66;5012663;28;20249;-47
2022/05/16 09:13:18;;;;;;;3.78;1.90;;;;;;;18.44;59.47;101833.66;5011159;28;20187;-47
2022/05/16 09:15:52;;;;;;;7.28;1.55;;;;;;;18.45;57.21;101831.81;5012821;28;20244;-49
2022/05/16 09:18:51;;;;;;;3.30;1.38;;;;;;;18.56;56.64;101828.50;5012717;28;20173;-47
2022/05/16 09:21:26;;;;;;;3.50;1.70;;;;;;;18.62;58.42;101834.47;5012581;28;20245;-47
2022/05/16 09:24:05;;;;;;;4.65;1.88;;;;;;;18.49;58.28;101828.84;5011875;28;20187;-47
2022/05/16 09:26:34;;;;;;;4.57;1.60;;;;;;;18.63;58.71;101846.19;5011767;28;20587;-48
2022/05/16 09:29:11;;;;;;;3.28;1.92;;;;;;;18.19;57.94;101835.94;5012292;28;20190;-48
2022/05/16 09:31:42;;;;;;;7.63;2.08;;;;;;;18.07;58.64;101832.06;5012249;28;20219;-49
2022/05/16 09:34:09;;;;;;;6.57;2.00;;;;;;;18.36;57.75;101840.47;5010698;28;20204;-48
2022/05/16 09:36:45;;;;;;;4.57;1.65;;;;;;;18.56;57.89;101828.50;5012085;28;20176;-48
2022/05/16 09:39:12;;;;;;;5.45;2.22;;;;;;;18.18;58.12;101828.78;5012424;28;20280;-48
2022/05/16 09:41:45;;;;;;;5.60;2.00;;;;;;;18.19;58.51;101828.72;5012121;28;20570;-49
2022/05/16 09:44:23;;;;;;;6.88;1.98;;;;;;;18.15;58.28;101821.69;5010276;28;20268;-47
2022/05/16 09:46:49;;;;;;;3.55;1.70;;;;;;;18.35;58.29;101817.88;5011002;28;20691;-49
2022/05/16 09:49:27;;;;;;;4.40;1.92;;;;;;;18.13;57.80;101818.19;5011802;28;20177;-46
2022/05/16 09:51:57;;;;;;;5.20;2.13;;;;;;;18.19;57.26;101820.56;5011748;28;20211;-48
2022/05/16 09:54:37;;;;;;;5.05;2.05;;;;;;;18.21;58.10;101812.31;5011440;28;20219;-48
2022/05/16 09:57:20;;;;;;;8.00;1.77;;;;;;;18.09;58.05;101827.44;5012009;28;20648;-49
2022/05/16 09:59:59;;;;;;;7.40;2.33;;;;;;;18.07;58.74;101816.66;5011992;28;20562;-50
2022/05/16 10:02:29;;;;;;;4.72;1.75;;;;;;;18.18;58.46;101828.78;5011687;28;20742;-48
2022/05/16 10:04:58;;;;;;;7.70;2.15;;;;;;;18.49;57.80;101828.84;5011454;28;20545;-48
2022/05/16 10:07:41;;;;;;;4.00;2.03;;;;;;;18.81;56.12;101826.19;5011449;28;20678;-49
2022/05/16 10:10:10;;;;;;;6.65;2.08;;;;;;;18.83;55.65;101824.28;5011841;28;20199;-50
2022/05/16 10:12:36;;;;;;;4.43;1.77;;;;;;;19.03;55.58;101822.25;5011413;28;20192;-49
2022/05/16 10:15:01;;;;;;;6.85;2.13;;;;;;;18.86;56.86;101817.78;5009725;28;20242;-47
2022/05/16 10:17:37;;;;;;;3.60;2.08;;;;;;;19.20;57.43;101819.41;5011734;28;20246;-49
2022/05/16 10:20:14;;;;;;;7.55;2.40;;;;;;;18.85;56.34;101822.34;5011246;28;20182;-49
2022/05/16 10:22:39;;;;;;;6.43;2.25;;;;;;;18.75;56.48;101812.94;5011626;28;20177;-49
2022/05/16 10:25:10;;;;;;;5.60;1.60;;;;;;;18.31;58.77;101821.72;5010947;28;20204;-48
2022/05/16 10:27:38;;;;;;;5.95;2.08;;;;;;;19.18;56.79;101807.75;4993582;28;20212;-47
2022/05/16 10:30:12;;;;;;;9.77;2.20;;;;;;;19.36;56.09;101813.94;5011451;28;20189;-49
2022/05/16 10:35:30;;;;;;;5.55;1.88;;;;;;;19.54;55.36;101799.25;5010936;28;20675;-48
2022/05/16 10:37:58;;;;;;;6.30;1.88;;;;;;;19.37;56.05;101802.09;5010970;28;20179;-47
2022/05/16 10:40:36;;;;;;;3.53;1.80;;;;;;;19.71;55.87;101795.53;5011049;28;20632;-49
2022/05/16 10:43:08;;;;;;;9.13;2.90;;;;;;;19.97;56.25;101798.50;5010894;28;20694;-49
2022/05/16 10:45:35;;;;;;;5.45;2.33;;;;;;;19.48;56.16;101790.59;5010715;28;20173;-50
2022/05/16 10:48:47;;;;;;;6.78;2.22;;;;;;;19.02;56.71;101788.78;5010850;28;20655;-47
2022/05/16 10:51:36;;;;;;;4.40;2.17;;;;;;;19.07;56.26;101785.78;5002713;28;20209;-47
2022/05/16 10:54:06;;;;;;;4.05;1.98;;;;;;;19.34;56.98;101786.84;5010420;28;20208;-48
2022/05/16 10:56:49;;;;;;;4.80;2.55;;;;;;;19.66;58.73;101791.34;5010702;28;20585;-48
2022/05/16 10:59:44;;;;;;;9.68;2.65;;;;;;;19.19;58.96;101776.91;5010720;28;20181;-48
2022/05/16 11:02:34;;;;;;;6.25;2.83;;;;;;;19.29;60.75;101783.56;5011166;28;20201;-48
2022/05/16 11:05:05;;;;;;;7.20;2.55;;;;;;;19.94;59.79;101779.63;5008808;28;20211;-46
2022/05/16 11:07:52;;;;;;;7.38;2.72;;;;;;;19.36;59.38;101781.34;5010673;28;20196;-48
2022/05/16 11:11:02;;;;;;;6.30;2.97;;;;;;;19.20;59.75;101773.25;5010384;28;20200;-46
2022/05/16 11:13:39;;;;;;;7.38;2.45;;;;;;;19.81;60.02;101768.66;4917779;29;20190;-48
2022/05/16 11:16:10;;;;;;;7.25;2.78;;;;;;;19.37;59.08;101774.91;5005898;28;20432;-47
2022/05/16 11:18:45;;;;;;;5.78;2.78;;;;;;;19.64;59.12;101779.69;5010566;28;20267;-49
2022/05/16 11:21:33;;;;;;;8.48;3.00;;;;;;;19.40;58.84;101784.75;5026237;28;20278;-48
2022/05/16 11:24:32;;;;;;;5.60;2.20;;;;;;;19.67;58.89;101774.91;5028416;28;20179;-48
2022/05/16 11:27:22;;;;;;;12.77;2.50;;;;;;;19.47;57.76;101770.69;5030019;28;20211;-48
2022/05/16 11:30:12;;;;;;;5.72;2.30;;;;;;;18.91;58.94;101767.69;5029832;28;20172;-48
2022/05/16 11:32:46;;;;;;;7.57;2.67;;;;;;;18.99;59.26;101769.94;5030121;28;20180;-47
2022/05/16 11:35:22;;;;;;;6.90;1.90;;;;;;;19.18;59.59;101779.72;5029532;28;20344;-47
2022/05/16 11:37:57;;;;;;;4.80;2.50;;;;;;;19.20;59.09;101772.34;5030221;28;20179;-48
2022/05/16 11:40:34;;;;;;;8.32;2.75;;;;;;;19.41;59.29;101773.78;5029762;28;20179;-48
2022/05/16 11:43:02;;;;;;;7.13;2.60;;;;;;;18.87;59.28;101766.09;5029582;28;20221;-46
2022/05/16 11:46:00;;;;;;;8.68;2.75;;;;;;;19.55;58.30;101772.97;5028643;28;20298;-49
2022/05/16 11:48:37;;;;;;;6.78;2.72;;;;;;;19.25;58.65;101767.53;5029664;28;20267;-48
2022/05/16 11:51:27;;;;;;;8.98;2.88;;;;;;;18.97;59.34;101765.56;5029406;28;20249;-48
2022/05/16 11:53:58;;;;;;;5.88;2.55;;;;;;;18.87;58.65;101760.69;5029318;28;20184;-48
2022/05/16 12:02:18;;;;;;;6.25;2.88;;;;;;;18.97;57.67;101766.44;5029296;28;20584;-47
2022/05/16 12:04:53;;;;;;;6.25;2.45;;;;;;;18.68;58.51;101760.81;5029360;28;20159;-46
2022/05/16 12:07:39;;;;;;;7.85;2.50;;;;;;;19.06;58.48;101757.72;5029512;28;20194;-47
2022/05/16 12:10:08;;;;;;;9.20;2.83;;;;;;;18.90;59.23;101757.78;5029574;28;20187;-47
2022/05/16 12:12:38;;;;;;;8.13;2.80;;;;;;;18.91;59.68;101762.25;5028340;28;20262;-47